sensor_id;sensor_type;location;lat;lon;timestamp;temperature;humidity
52621;DHT22;38515;53.160;6.990;2023-10-19T00:01:22;7.60;99.90
52621;DHT22;38515;53.160;6.990;2023-10-19T00:03:52;7.60;99.90
52621;DHT22;38515;53.160;6.990;2023-10-19T00:06:22;7.60;99.90
52621;DHT22;38515;53.160;6.990;2023-10-19T00:08:49;7.60;99.90
52621;DHT22;38515;53.160;6.990;2023-10-19T00:11:17;7.50;99.90
52621;DHT22;38515;53.160;6.990;2023-10-19T00:13:51;7.60;99.90
52621;DHT22;38515;53.160;6.990;2023-10-19T00:16:20;7.50;99.90
52621;DHT22;38515;53.160;6.990;2023-10-19T00:18:50;7.50;99.90
52621;DHT22;38515;53.160;6.990;2023-10-19T00:21:18;7.50;99.90
52621;DHT22;38515;53.160;6.990;2023-10-19T00:23:52;7.50;99.90
52621;DHT22;38515;53.160;6.990;2023-10-19T00:26:21;7.50;99.90
52621;DHT22;38515;53.160;6.990;2023-10-19T00:28:51;7.40;99.90
52621;DHT22;38515;53.160;6.990;2023-10-19T00:31:27;7.40;99.90
52621;DHT22;38515;53.160;6.990;2023-10-19T00:33:53;7.50;99.90
52621;DHT22;38515;53.160;6.990;2023-10-19T00:36:23;7.50;99.90
52621;DHT22;38515;53.160;6.990;2023-10-19T00:38:49;7.30;99.90
52621;DHT22;38515;53.160;6.990;2023-10-19T00:41:20;7.30;99.90
52621;DHT22;38515;53.160;6.990;2023-10-19T00:43:50;7.40;99.90
52621;DHT22;38515;53.160;6.990;2023-10-19T00:46:23;7.50;99.90
52621;DHT22;38515;53.160;6.990;2023-10-19T00:48:57;7.40;99.90
52621;DHT22;38515;53.160;6.990;2023-10-19T00:51:26;7.40;99.90
52621;DHT22;38515;53.160;6.990;2023-10-19T00:54:04;7.40;99.90
52621;DHT22;38515;53.160;6.990;2023-10-19T00:56:37;7.50;99.90
52621;DHT22;38515;53.160;6.990;2023-10-19T00:59:03;7.40;99.90
52621;DHT22;38515;53.160;6.990;2023-10-19T01:01:44;7.50;99.90
52621;DHT22;38515;53.160;6.990;2023-10-19T01:04:16;7.50;99.90
52621;DHT22;38515;53.160;6.990;2023-10-19T01:06:57;7.30;99.90
52621;DHT22;38515;53.160;6.990;2023-10-19T01:09:46;7.50;99.90
52621;DHT22;38515;53.160;6.990;2023-10-19T01:12:12;7.30;99.90
52621;DHT22;38515;53.160;6.990;2023-10-19T01:17:39;7.20;99.90
52621;DHT22;38515;53.160;6.990;2023-10-19T01:20:10;7.40;99.90
52621;DHT22;38515;53.160;6.990;2023-10-19T01:22:52;7.40;99.90
52621;DHT22;38515;53.160;6.990;2023-10-19T01:25:20;7.40;99.90
52621;DHT22;38515;53.160;6.990;2023-10-19T01:28:00;7.30;99.90
52621;DHT22;38515;53.160;6.990;2023-10-19T01:30:33;7.40;99.90
52621;DHT22;38515;53.160;6.990;2023-10-19T01:32:59;7.40;99.90
52621;DHT22;38515;53.160;6.990;2023-10-19T01:35:25;7.30;99.90
52621;DHT22;38515;53.160;6.990;2023-10-19T01:37:52;7.50;99.90
52621;DHT22;38515;53.160;6.990;2023-10-19T01:40:18;7.40;99.90
52621;DHT22;38515;53.160;6.990;2023-10-19T01:42:46;7.40;99.90
52621;DHT22;38515;53.160;6.990;2023-10-19T01:45:12;7.30;99.90
52621;DHT22;38515;53.160;6.990;2023-10-19T01:47:40;7.40;99.90
52621;DHT22;38515;53.160;6.990;2023-10-19T01:50:07;7.20;99.90
52621;DHT22;38515;53.160;6.990;2023-10-19T01:52:39;7.40;99.90
52621;DHT22;38515;53.160;6.990;2023-10-19T01:55:05;7.40;99.90
52621;DHT22;38515;53.160;6.990;2023-10-19T01:57:34;7.20;99.90
52621;DHT22;38515;53.160;6.990;2023-10-19T02:00:00;7.40;99.90
52621;DHT22;38515;53.160;6.990;2023-10-19T02:02:36;7.30;99.90
52621;DHT22;38515;53.160;6.990;2023-10-19T02:05:03;7.20;99.90
52621;DHT22;38515;53.160;6.990;2023-10-19T02:07:35;7.30;99.90
52621;DHT22;38515;53.160;6.990;2023-10-19T02:10:01;7.30;99.90
52621;DHT22;38515;53.160;6.990;2023-10-19T02:12:26;7.40;99.90
52621;DHT22;38515;53.160;6.990;2023-10-19T02:14:52;7.40;99.90
52621;DHT22;38515;53.160;6.990;2023-10-19T02:17:18;7.50;99.90
52621;DHT22;38515;53.160;6.990;2023-10-19T02:19:44;7.40;99.90
52621;DHT22;38515;53.160;6.990;2023-10-19T02:22:10;7.40;99.90
52621;DHT22;38515;53.160;6.990;2023-10-19T02:24:37;7.50;99.90
52621;DHT22;38515;53.160;6.990;2023-10-19T02:27:04;7.20;99.90
52621;DHT22;38515;53.160;6.990;2023-10-19T02:29:30;7.20;99.90
52621;DHT22;38515;53.160;6.990;2023-10-19T02:31:57;7.20;99.90
52621;DHT22;38515;53.160;6.990;2023-10-19T02:34:29;7.50;99.90
52621;DHT22;38515;53.160;6.990;2023-10-19T02:36:54;7.20;99.90
52621;DHT22;38515;53.160;6.990;2023-10-19T02:39:20;7.20;99.90
52621;DHT22;38515;53.160;6.990;2023-10-19T02:41:51;7.30;99.90
52621;DHT22;38515;53.160;6.990;2023-10-19T02:44:21;7.20;99.90
52621;DHT22;38515;53.160;6.990;2023-10-19T02:46:55;7.50;99.90
52621;DHT22;38515;53.160;6.990;2023-10-19T02:49:34;7.50;99.90
52621;DHT22;38515;53.160;6.990;2023-10-19T02:52:05;7.30;99.90
52621;DHT22;38515;53.160;6.990;2023-10-19T02:54:31;7.40;99.90
52621;DHT22;38515;53.160;6.990;2023-10-19T02:57:00;7.20;99.90
52621;DHT22;38515;53.160;6.990;2023-10-19T02:59:27;7.30;99.90
52621;DHT22;38515;53.160;6.990;2023-10-19T03:01:59;7.50;99.90
52621;DHT22;38515;53.160;6.990;2023-10-19T03:04:37;7.30;99.90
52621;DHT22;38515;53.160;6.990;2023-10-19T03:07:06;7.60;99.90
52621;DHT22;38515;53.160;6.990;2023-10-19T03:09:37;7.50;99.90
52621;DHT22;38515;53.160;6.990;2023-10-19T03:12:14;7.30;99.90
52621;DHT22;38515;53.160;6.990;2023-10-19T03:14:40;7.50;99.90
52621;DHT22;38515;53.160;6.990;2023-10-19T03:17:13;7.50;99.90
52621;DHT22;38515;53.160;6.990;2023-10-19T03:19:40;7.50;99.90
52621;DHT22;38515;53.160;6.990;2023-10-19T03:22:05;7.30;99.90
52621;DHT22;38515;53.160;6.990;2023-10-19T03:24:32;7.20;99.90
52621;DHT22;38515;53.160;6.990;2023-10-19T03:27:05;7.20;99.90
52621;DHT22;38515;53.160;6.990;2023-10-19T03:29:42;7.60;99.90
52621;DHT22;38515;53.160;6.990;2023-10-19T03:32:18;7.50;99.90
52621;DHT22;38515;53.160;6.990;2023-10-19T03:34:47;7.60;99.90
52621;DHT22;38515;53.160;6.990;2023-10-19T03:37:14;7.30;99.90
52621;DHT22;38515;53.160;6.990;2023-10-19T03:39:41;7.60;99.90
52621;DHT22;38515;53.160;6.990;2023-10-19T03:42:11;7.40;99.90
52621;DHT22;38515;53.160;6.990;2023-10-19T03:44:39;7.60;99.90
52621;DHT22;38515;53.160;6.990;2023-10-19T03:47:08;7.40;99.90
52621;DHT22;38515;53.160;6.990;2023-10-19T03:49:38;7.70;99.90
52621;DHT22;38515;53.160;6.990;2023-10-19T03:52:07;7.70;99.90
52621;DHT22;38515;53.160;6.990;2023-10-19T03:54:36;7.70;99.90
52621;DHT22;38515;53.160;6.990;2023-10-19T03:57:07;7.40;99.90
52621;DHT22;38515;53.160;6.990;2023-10-19T03:59:40;7.70;99.90
52621;DHT22;38515;53.160;6.990;2023-10-19T04:02:08;7.60;99.90
52621;DHT22;38515;53.160;6.990;2023-10-19T04:04:44;7.70;99.90
52621;DHT22;38515;53.160;6.990;2023-10-19T04:07:13;7.30;99.90
52621;DHT22;38515;53.160;6.990;2023-10-19T04:09:55;7.80;99.90
52621;DHT22;38515;53.160;6.990;2023-10-19T04:12:25;7.70;99.90
52621;DHT22;38515;53.160;6.990;2023-10-19T04:14:51;7.40;99.90
52621;DHT22;38515;53.160;6.990;2023-10-19T04:17:17;7.30;99.90
52621;DHT22;38515;53.160;6.990;2023-10-19T04:19:47;7.60;99.90
52621;DHT22;38515;53.160;6.990;2023-10-19T04:22:14;7.70;99.90
52621;DHT22;38515;53.160;6.990;2023-10-19T04:24:51;7.80;99.90
52621;DHT22;38515;53.160;6.990;2023-10-19T04:27:18;7.60;99.90
52621;DHT22;38515;53.160;6.990;2023-10-19T04:29:47;7.40;99.90
52621;DHT22;38515;53.160;6.990;2023-10-19T04:32:15;7.90;99.90
52621;DHT22;38515;53.160;6.990;2023-10-19T04:34:49;7.50;99.90
52621;DHT22;38515;53.160;6.990;2023-10-19T04:37:15;7.50;99.90
52621;DHT22;38515;53.160;6.990;2023-10-19T04:39:44;7.50;99.90
52621;DHT22;38515;53.160;6.990;2023-10-19T04:42:10;7.50;99.90
52621;DHT22;38515;53.160;6.990;2023-10-19T04:44:36;7.40;99.90
52621;DHT22;38515;53.160;6.990;2023-10-19T04:47:02;7.80;99.90
52621;DHT22;38515;53.160;6.990;2023-10-19T04:49:28;7.50;99.90
52621;DHT22;38515;53.160;6.990;2023-10-19T04:51:54;7.40;99.90
52621;DHT22;38515;53.160;6.990;2023-10-19T04:54:20;8.00;99.90
52621;DHT22;38515;53.160;6.990;2023-10-19T04:56:45;7.90;99.90
52621;DHT22;38515;53.160;6.990;2023-10-19T04:59:11;7.90;99.90
52621;DHT22;38515;53.160;6.990;2023-10-19T05:01:37;7.70;99.90
52621;DHT22;38515;53.160;6.990;2023-10-19T05:04:03;7.80;99.90
52621;DHT22;38515;53.160;6.990;2023-10-19T05:06:29;7.60;99.90
52621;DHT22;38515;53.160;6.990;2023-10-19T05:08:55;7.80;99.90
52621;DHT22;38515;53.160;6.990;2023-10-19T05:11:21;7.70;99.90
52621;DHT22;38515;53.160;6.990;2023-10-19T05:13:46;7.50;99.90
52621;DHT22;38515;53.160;6.990;2023-10-19T05:16:12;7.50;99.90
52621;DHT22;38515;53.160;6.990;2023-10-19T05:18:38;7.50;99.90
52621;DHT22;38515;53.160;6.990;2023-10-19T05:21:04;7.70;99.90
52621;DHT22;38515;53.160;6.990;2023-10-19T05:23:30;7.50;99.90
52621;DHT22;38515;53.160;6.990;2023-10-19T05:26:01;7.70;99.90
52621;DHT22;38515;53.160;6.990;2023-10-19T05:28:28;7.50;99.90
52621;DHT22;38515;53.160;6.990;2023-10-19T05:30:54;7.70;99.90
52621;DHT22;38515;53.160;6.990;2023-10-19T05:33:20;7.70;99.90
52621;DHT22;38515;53.160;6.990;2023-10-19T05:35:49;7.90;99.90
52621;DHT22;38515;53.160;6.990;2023-10-19T05:38:16;7.50;99.90
52621;DHT22;38515;53.160;6.990;2023-10-19T05:40:45;7.40;99.90
52621;DHT22;38515;53.160;6.990;2023-10-19T05:43:11;7.60;99.90
52621;DHT22;38515;53.160;6.990;2023-10-19T05:45:38;7.90;99.90
52621;DHT22;38515;53.160;6.990;2023-10-19T05:48:04;7.50;99.90
52621;DHT22;38515;53.160;6.990;2023-10-19T05:50:33;7.90;99.90
52621;DHT22;38515;53.160;6.990;2023-10-19T05:52:59;7.40;99.90
52621;DHT22;38515;53.160;6.990;2023-10-19T05:55:26;7.40;99.90
52621;DHT22;38515;53.160;6.990;2023-10-19T05:57:51;7.60;99.90
52621;DHT22;38515;53.160;6.990;2023-10-19T06:00:17;7.90;99.90
52621;DHT22;38515;53.160;6.990;2023-10-19T06:02:47;7.50;99.90
52621;DHT22;38515;53.160;6.990;2023-10-19T06:05:16;7.90;99.90
52621;DHT22;38515;53.160;6.990;2023-10-19T06:07:46;7.90;99.90
52621;DHT22;38515;53.160;6.990;2023-10-19T06:10:14;7.50;99.90
52621;DHT22;38515;53.160;6.990;2023-10-19T06:12:44;7.60;99.90
52621;DHT22;38515;53.160;6.990;2023-10-19T06:15:11;7.30;99.90
52621;DHT22;38515;53.160;6.990;2023-10-19T06:17:39;7.70;99.90
52621;DHT22;38515;53.160;6.990;2023-10-19T06:20:07;7.40;99.90
52621;DHT22;38515;53.160;6.990;2023-10-19T06:22:37;7.80;99.90
52621;DHT22;38515;53.160;6.990;2023-10-19T06:25:03;7.90;99.90
52621;DHT22;38515;53.160;6.990;2023-10-19T06:27:32;7.90;99.90
52621;DHT22;38515;53.160;6.990;2023-10-19T06:29:58;7.40;99.90
52621;DHT22;38515;53.160;6.990;2023-10-19T06:32:23;7.50;99.90
52621;DHT22;38515;53.160;6.990;2023-10-19T06:34:49;7.90;99.90
52621;DHT22;38515;53.160;6.990;2023-10-19T06:37:15;7.80;99.90
52621;DHT22;38515;53.160;6.990;2023-10-19T06:39:41;7.90;99.90
52621;DHT22;38515;53.160;6.990;2023-10-19T06:42:08;7.90;99.90
52621;DHT22;38515;53.160;6.990;2023-10-19T06:44:41;8.30;99.90
52621;DHT22;38515;53.160;6.990;2023-10-19T06:47:09;7.90;99.90
52621;DHT22;38515;53.160;6.990;2023-10-19T06:49:39;7.60;99.90
52621;DHT22;38515;53.160;6.990;2023-10-19T06:52:05;7.70;99.90
52621;DHT22;38515;53.160;6.990;2023-10-19T06:54:31;7.90;99.90
52621;DHT22;38515;53.160;6.990;2023-10-19T06:56:57;7.50;99.90
52621;DHT22;38515;53.160;6.990;2023-10-19T06:59:23;7.90;99.90
52621;DHT22;38515;53.160;6.990;2023-10-19T07:01:50;7.40;99.90
52621;DHT22;38515;53.160;6.990;2023-10-19T07:04:15;7.90;99.90
52621;DHT22;38515;53.160;6.990;2023-10-19T07:06:41;7.60;99.90
52621;DHT22;38515;53.160;6.990;2023-10-19T07:09:07;7.70;99.90
52621;DHT22;38515;53.160;6.990;2023-10-19T07:11:36;7.80;99.90
52621;DHT22;38515;53.160;6.990;2023-10-19T07:14:01;7.90;99.90
52621;DHT22;38515;53.160;6.990;2023-10-19T07:16:28;7.90;99.90
52621;DHT22;38515;53.160;6.990;2023-10-19T07:18:55;7.70;99.90
52621;DHT22;38515;53.160;6.990;2023-10-19T07:21:25;7.90;99.90
52621;DHT22;38515;53.160;6.990;2023-10-19T07:23:54;7.60;99.90
52621;DHT22;38515;53.160;6.990;2023-10-19T07:26:21;7.60;99.90
52621;DHT22;38515;53.160;6.990;2023-10-19T07:28:56;7.90;99.90
52621;DHT22;38515;53.160;6.990;2023-10-19T07:31:22;7.90;99.90
52621;DHT22;38515;53.160;6.990;2023-10-19T07:33:48;7.90;99.90
52621;DHT22;38515;53.160;6.990;2023-10-19T07:36:18;8.00;99.90
52621;DHT22;38515;53.160;6.990;2023-10-19T07:38:45;7.90;99.90
52621;DHT22;38515;53.160;6.990;2023-10-19T07:41:13;7.50;99.90
52621;DHT22;38515;53.160;6.990;2023-10-19T07:43:39;7.60;99.90
52621;DHT22;38515;53.160;6.990;2023-10-19T07:46:05;8.00;99.90
52621;DHT22;38515;53.160;6.990;2023-10-19T07:48:30;7.60;99.90
52621;DHT22;38515;53.160;6.990;2023-10-19T07:50:58;7.80;99.90
52621;DHT22;38515;53.160;6.990;2023-10-19T07:53:24;7.90;99.90
52621;DHT22;38515;53.160;6.990;2023-10-19T07:55:52;8.00;99.90
52621;DHT22;38515;53.160;6.990;2023-10-19T07:58:18;7.90;99.90
52621;DHT22;38515;53.160;6.990;2023-10-19T08:00:44;7.90;99.90
52621;DHT22;38515;53.160;6.990;2023-10-19T08:03:12;7.90;99.90
52621;DHT22;38515;53.160;6.990;2023-10-19T08:05:41;7.60;99.90
52621;DHT22;38515;53.160;6.990;2023-10-19T08:08:08;7.90;99.90
52621;DHT22;38515;53.160;6.990;2023-10-19T08:10:34;8.00;99.90
52621;DHT22;38515;53.160;6.990;2023-10-19T08:13:00;8.00;99.90
52621;DHT22;38515;53.160;6.990;2023-10-19T08:15:27;7.70;99.90
52621;DHT22;38515;53.160;6.990;2023-10-19T08:17:55;8.10;99.90
52621;DHT22;38515;53.160;6.990;2023-10-19T08:20:22;8.00;99.90
52621;DHT22;38515;53.160;6.990;2023-10-19T08:22:57;8.00;99.90
52621;DHT22;38515;53.160;6.990;2023-10-19T08:25:24;7.60;99.90
52621;DHT22;38515;53.160;6.990;2023-10-19T08:27:52;8.00;99.90
52621;DHT22;38515;53.160;6.990;2023-10-19T08:30:22;8.10;99.90
52621;DHT22;38515;53.160;6.990;2023-10-19T08:32:49;7.80;99.90
52621;DHT22;38515;53.160;6.990;2023-10-19T08:35:20;7.60;99.90
52621;DHT22;38515;53.160;6.990;2023-10-19T08:37:53;7.90;99.90
52621;DHT22;38515;53.160;6.990;2023-10-19T08:40:20;7.80;99.90
52621;DHT22;38515;53.160;6.990;2023-10-19T08:42:47;8.00;99.90
52621;DHT22;38515;53.160;6.990;2023-10-19T08:45:14;7.60;99.90
52621;DHT22;38515;53.160;6.990;2023-10-19T08:48:02;8.00;99.90
52621;DHT22;38515;53.160;6.990;2023-10-19T08:50:32;8.10;99.90
52621;DHT22;38515;53.160;6.990;2023-10-19T08:53:01;8.00;99.90
52621;DHT22;38515;53.160;6.990;2023-10-19T08:55:28;7.60;99.90
52621;DHT22;38515;53.160;6.990;2023-10-19T08:57:55;8.10;99.90
52621;DHT22;38515;53.160;6.990;2023-10-19T09:00:24;8.10;99.90
52621;DHT22;38515;53.160;6.990;2023-10-19T09:02:53;7.60;99.90
52621;DHT22;38515;53.160;6.990;2023-10-19T09:05:20;8.20;99.90
52621;DHT22;38515;53.160;6.990;2023-10-19T09:07:54;7.80;99.90
52621;DHT22;38515;53.160;6.990;2023-10-19T09:10:21;8.10;99.90
52621;DHT22;38515;53.160;6.990;2023-10-19T09:13:04;8.00;99.90
52621;DHT22;38515;53.160;6.990;2023-10-19T09:15:33;7.80;99.90
52621;DHT22;38515;53.160;6.990;2023-10-19T09:20:44;7.80;99.90
52621;DHT22;38515;53.160;6.990;2023-10-19T09:23:20;7.80;99.90
52621;DHT22;38515;53.160;6.990;2023-10-19T09:25:48;7.90;99.90
52621;DHT22;38515;53.160;6.990;2023-10-19T09:28:14;8.00;99.90
52621;DHT22;38515;53.160;6.990;2023-10-19T09:30:40;8.30;99.90
52621;DHT22;38515;53.160;6.990;2023-10-19T09:33:09;7.80;99.90
52621;DHT22;38515;53.160;6.990;2023-10-19T09:35:35;8.30;99.90
52621;DHT22;38515;53.160;6.990;2023-10-19T09:38:04;8.40;99.90
52621;DHT22;38515;53.160;6.990;2023-10-19T09:40:32;8.10;99.90
52621;DHT22;38515;53.160;6.990;2023-10-19T09:43:04;8.40;99.90
52621;DHT22;38515;53.160;6.990;2023-10-19T09:45:37;8.00;99.90
52621;DHT22;38515;53.160;6.990;2023-10-19T09:48:08;8.00;99.90
52621;DHT22;38515;53.160;6.990;2023-10-19T09:50:44;8.50;99.90
52621;DHT22;38515;53.160;6.990;2023-10-19T09:53:11;7.90;99.90
52621;DHT22;38515;53.160;6.990;2023-10-19T09:55:38;8.00;99.90
52621;DHT22;38515;53.160;6.990;2023-10-19T09:58:16;8.10;99.90
52621;DHT22;38515;53.160;6.990;2023-10-19T10:00:44;8.40;99.90
52621;DHT22;38515;53.160;6.990;2023-10-19T10:03:46;8.10;99.90
52621;DHT22;38515;53.160;6.990;2023-10-19T10:06:15;8.30;99.90
52621;DHT22;38515;53.160;6.990;2023-10-19T10:08:42;8.30;99.90
52621;DHT22;38515;53.160;6.990;2023-10-19T10:11:32;8.50;99.90
52621;DHT22;38515;53.160;6.990;2023-10-19T10:13:59;8.50;99.90
52621;DHT22;38515;53.160;6.990;2023-10-19T10:16:28;8.60;99.90
52621;DHT22;38515;53.160;6.990;2023-10-19T10:18:59;8.30;99.90
52621;DHT22;38515;53.160;6.990;2023-10-19T10:21:29;8.40;99.90
52621;DHT22;38515;53.160;6.990;2023-10-19T10:24:03;8.20;99.90
52621;DHT22;38515;53.160;6.990;2023-10-19T10:26:30;8.70;99.90
52621;DHT22;38515;53.160;6.990;2023-10-19T10:29:09;8.60;99.90
52621;DHT22;38515;53.160;6.990;2023-10-19T10:31:40;8.50;99.90
52621;DHT22;38515;53.160;6.990;2023-10-19T10:34:08;8.40;99.90
52621;DHT22;38515;53.160;6.990;2023-10-19T10:37:17;8.80;99.90
52621;DHT22;38515;53.160;6.990;2023-10-19T10:40:08;8.70;99.90
52621;DHT22;38515;53.160;6.990;2023-10-19T10:43:05;8.80;99.90
52621;DHT22;38515;53.160;6.990;2023-10-19T10:45:49;8.80;99.90
52621;DHT22;38515;53.160;6.990;2023-10-19T10:48:19;8.60;99.90
52621;DHT22;38515;53.160;6.990;2023-10-19T10:50:45;8.40;99.90
52621;DHT22;38515;53.160;6.990;2023-10-19T10:53:13;8.40;99.90
52621;DHT22;38515;53.160;6.990;2023-10-19T10:55:40;8.90;99.90
52621;DHT22;38515;53.160;6.990;2023-10-19T10:58:15;8.50;99.90
52621;DHT22;38515;53.160;6.990;2023-10-19T11:00:45;8.50;99.90
52621;DHT22;38515;53.160;6.990;2023-10-19T11:03:17;8.90;99.90
52621;DHT22;38515;53.160;6.990;2023-10-19T11:05:43;8.90;99.90
52621;DHT22;38515;53.160;6.990;2023-10-19T11:08:14;9.00;99.90
52621;DHT22;38515;53.160;6.990;2023-10-19T11:10:42;9.00;99.90
52621;DHT22;38515;53.160;6.990;2023-10-19T11:13:12;8.70;99.90
52621;DHT22;38515;53.160;6.990;2023-10-19T11:15:48;8.80;99.90
52621;DHT22;38515;53.160;6.990;2023-10-19T11:18:29;8.60;99.90
52621;DHT22;38515;53.160;6.990;2023-10-19T11:20:56;9.00;99.90
52621;DHT22;38515;53.160;6.990;2023-10-19T11:23:39;8.90;99.90
52621;DHT22;38515;53.160;6.990;2023-10-19T11:26:05;9.00;99.90
52621;DHT22;38515;53.160;6.990;2023-10-19T11:28:32;8.60;99.90
52621;DHT22;38515;53.160;6.990;2023-10-19T11:33:38;9.00;99.90
52621;DHT22;38515;53.160;6.990;2023-10-19T11:36:05;9.10;99.90
52621;DHT22;38515;53.160;6.990;2023-10-19T11:38:31;8.80;99.90
52621;DHT22;38515;53.160;6.990;2023-10-19T11:40:57;8.60;99.90
52621;DHT22;38515;53.160;6.990;2023-10-19T11:43:23;9.00;99.90
52621;DHT22;38515;53.160;6.990;2023-10-19T11:45:49;9.00;99.90
52621;DHT22;38515;53.160;6.990;2023-10-19T11:48:15;8.70;99.90
52621;DHT22;38515;53.160;6.990;2023-10-19T11:50:41;8.60;99.90
52621;DHT22;38515;53.160;6.990;2023-10-19T11:53:07;8.90;99.90
52621;DHT22;38515;53.160;6.990;2023-10-19T11:55:35;8.50;99.90
52621;DHT22;38515;53.160;6.990;2023-10-19T11:58:01;8.50;99.90
52621;DHT22;38515;53.160;6.990;2023-10-19T12:00:27;8.90;99.90
52621;DHT22;38515;53.160;6.990;2023-10-19T12:02:59;8.80;99.90
52621;DHT22;38515;53.160;6.990;2023-10-19T12:05:25;8.90;99.90
52621;DHT22;38515;53.160;6.990;2023-10-19T12:07:51;8.80;99.90
52621;DHT22;38515;53.160;6.990;2023-10-19T12:10:18;8.40;99.90
52621;DHT22;38515;53.160;6.990;2023-10-19T12:12:46;8.70;99.90
52621;DHT22;38515;53.160;6.990;2023-10-19T12:15:12;8.50;99.90
52621;DHT22;38515;53.160;6.990;2023-10-19T12:17:38;8.50;99.90
52621;DHT22;38515;53.160;6.990;2023-10-19T12:20:04;8.50;99.90
52621;DHT22;38515;53.160;6.990;2023-10-19T12:22:32;8.90;99.90
52621;DHT22;38515;53.160;6.990;2023-10-19T12:25:04;9.00;99.90
52621;DHT22;38515;53.160;6.990;2023-10-19T12:27:30;8.50;99.90
52621;DHT22;38515;53.160;6.990;2023-10-19T12:29:56;8.60;99.90
52621;DHT22;38515;53.160;6.990;2023-10-19T12:32:25;8.70;99.90
52621;DHT22;38515;53.160;6.990;2023-10-19T12:34:51;8.50;99.90
52621;DHT22;38515;53.160;6.990;2023-10-19T12:37:23;8.70;99.90
52621;DHT22;38515;53.160;6.990;2023-10-19T12:39:50;8.70;99.90
52621;DHT22;38515;53.160;6.990;2023-10-19T12:42:17;8.80;99.90
52621;DHT22;38515;53.160;6.990;2023-10-19T12:44:43;8.60;99.90
52621;DHT22;38515;53.160;6.990;2023-10-19T12:47:10;8.50;99.90
52621;DHT22;38515;53.160;6.990;2023-10-19T12:49:42;8.60;99.90
52621;DHT22;38515;53.160;6.990;2023-10-19T12:52:10;8.80;99.90
52621;DHT22;38515;53.160;6.990;2023-10-19T12:54:37;8.60;99.90
52621;DHT22;38515;53.160;6.990;2023-10-19T12:57:04;8.70;99.90
52621;DHT22;38515;53.160;6.990;2023-10-19T12:59:34;8.50;99.90
52621;DHT22;38515;53.160;6.990;2023-10-19T13:02:03;8.70;99.90
52621;DHT22;38515;53.160;6.990;2023-10-19T13:04:30;8.50;99.90
52621;DHT22;38515;53.160;6.990;2023-10-19T13:06:56;8.50;99.90
52621;DHT22;38515;53.160;6.990;2023-10-19T13:09:25;8.50;99.90
52621;DHT22;38515;53.160;6.990;2023-10-19T13:11:57;8.50;99.90
52621;DHT22;38515;53.160;6.990;2023-10-19T13:14:23;8.80;99.90
52621;DHT22;38515;53.160;6.990;2023-10-19T13:16:49;8.80;99.90
52621;DHT22;38515;53.160;6.990;2023-10-19T13:19:17;8.80;99.90
52621;DHT22;38515;53.160;6.990;2023-10-19T13:21:48;8.90;99.90
52621;DHT22;38515;53.160;6.990;2023-10-19T13:24:15;8.80;99.90
52621;DHT22;38515;53.160;6.990;2023-10-19T13:26:42;8.90;99.90
52621;DHT22;38515;53.160;6.990;2023-10-19T13:29:11;8.90;99.90
52621;DHT22;38515;53.160;6.990;2023-10-19T13:31:37;8.90;99.90
52621;DHT22;38515;53.160;6.990;2023-10-19T13:34:03;8.50;99.90
52621;DHT22;38515;53.160;6.990;2023-10-19T13:36:38;8.50;99.90
52621;DHT22;38515;53.160;6.990;2023-10-19T13:39:04;8.50;99.90
52621;DHT22;38515;53.160;6.990;2023-10-19T13:41:31;8.80;99.90
52621;DHT22;38515;53.160;6.990;2023-10-19T13:43:57;8.70;99.90
52621;DHT22;38515;53.160;6.990;2023-10-19T13:46:23;8.90;99.90
52621;DHT22;38515;53.160;6.990;2023-10-19T13:48:50;8.90;99.90
52621;DHT22;38515;53.160;6.990;2023-10-19T13:51:17;8.80;99.90
52621;DHT22;38515;53.160;6.990;2023-10-19T13:53:44;8.50;99.90
52621;DHT22;38515;53.160;6.990;2023-10-19T13:56:11;8.90;99.90
52621;DHT22;38515;53.160;6.990;2023-10-19T13:58:38;8.90;99.90
52621;DHT22;38515;53.160;6.990;2023-10-19T14:01:10;8.90;99.90
52621;DHT22;38515;53.160;6.990;2023-10-19T14:03:37;8.70;99.90
52621;DHT22;38515;53.160;6.990;2023-10-19T14:06:03;8.70;99.90
52621;DHT22;38515;53.160;6.990;2023-10-19T14:08:29;8.50;99.90
52621;DHT22;38515;53.160;6.990;2023-10-19T14:11:03;8.50;99.90
52621;DHT22;38515;53.160;6.990;2023-10-19T14:13:29;8.90;99.90
52621;DHT22;38515;53.160;6.990;2023-10-19T14:15:55;8.70;99.90
52621;DHT22;38515;53.160;6.990;2023-10-19T14:18:21;8.90;99.90
52621;DHT22;38515;53.160;6.990;2023-10-19T14:20:47;8.50;99.90
52621;DHT22;38515;53.160;6.990;2023-10-19T14:23:14;8.90;99.90
52621;DHT22;38515;53.160;6.990;2023-10-19T14:25:43;8.50;99.90
52621;DHT22;38515;53.160;6.990;2023-10-19T14:28:10;8.40;99.90
52621;DHT22;38515;53.160;6.990;2023-10-19T14:30:36;8.90;99.90
52621;DHT22;38515;53.160;6.990;2023-10-19T14:33:02;8.60;99.90
52621;DHT22;38515;53.160;6.990;2023-10-19T14:35:29;8.60;99.90
52621;DHT22;38515;53.160;6.990;2023-10-19T14:37:58;8.60;99.90
52621;DHT22;38515;53.160;6.990;2023-10-19T14:40:27;8.50;99.90
52621;DHT22;38515;53.160;6.990;2023-10-19T14:42:55;8.60;99.90
52621;DHT22;38515;53.160;6.990;2023-10-19T14:45:23;8.50;99.90
52621;DHT22;38515;53.160;6.990;2023-10-19T14:47:55;8.90;99.90
52621;DHT22;38515;53.160;6.990;2023-10-19T14:50:22;8.80;99.90
52621;DHT22;38515;53.160;6.990;2023-10-19T14:52:50;9.00;99.90
52621;DHT22;38515;53.160;6.990;2023-10-19T14:55:23;8.70;99.90
52621;DHT22;38515;53.160;6.990;2023-10-19T14:57:51;8.80;99.90
52621;DHT22;38515;53.160;6.990;2023-10-19T15:00:25;8.70;99.90
52621;DHT22;38515;53.160;6.990;2023-10-19T15:03:01;8.50;99.90
52621;DHT22;38515;53.160;6.990;2023-10-19T15:05:30;8.80;99.90
52621;DHT22;38515;53.160;6.990;2023-10-19T15:08:01;8.60;99.90
52621;DHT22;38515;53.160;6.990;2023-10-19T15:10:28;8.60;99.90
52621;DHT22;38515;53.160;6.990;2023-10-19T15:12:55;8.90;99.90
52621;DHT22;38515;53.160;6.990;2023-10-19T15:15:25;8.90;99.90
52621;DHT22;38515;53.160;6.990;2023-10-19T15:17:51;8.50;99.90
52621;DHT22;38515;53.160;6.990;2023-10-19T15:20:19;8.70;99.90
52621;DHT22;38515;53.160;6.990;2023-10-19T15:22:46;8.80;99.90
52621;DHT22;38515;53.160;6.990;2023-10-19T15:25:13;8.50;99.90
52621;DHT22;38515;53.160;6.990;2023-10-19T15:27:41;8.90;99.90
52621;DHT22;38515;53.160;6.990;2023-10-19T15:30:08;8.80;99.90
52621;DHT22;38515;53.160;6.990;2023-10-19T15:32:35;8.50;99.90
52621;DHT22;38515;53.160;6.990;2023-10-19T15:35:02;8.70;99.90
52621;DHT22;38515;53.160;6.990;2023-10-19T15:37:29;8.60;99.90
52621;DHT22;38515;53.160;6.990;2023-10-19T15:39:55;8.50;99.90
52621;DHT22;38515;53.160;6.990;2023-10-19T15:42:21;8.60;99.90
52621;DHT22;38515;53.160;6.990;2023-10-19T15:44:48;8.60;99.90
52621;DHT22;38515;53.160;6.990;2023-10-19T15:47:15;8.90;99.90
52621;DHT22;38515;53.160;6.990;2023-10-19T15:49:51;8.70;99.90
52621;DHT22;38515;53.160;6.990;2023-10-19T15:52:25;8.90;99.90
52621;DHT22;38515;53.160;6.990;2023-10-19T15:54:51;8.80;99.90
52621;DHT22;38515;53.160;6.990;2023-10-19T15:57:18;8.80;99.90
52621;DHT22;38515;53.160;6.990;2023-10-19T15:59:45;8.90;99.90
52621;DHT22;38515;53.160;6.990;2023-10-19T16:02:11;8.50;99.90
52621;DHT22;38515;53.160;6.990;2023-10-19T16:04:42;8.60;99.90